sensor_id;sensor_type;location;lat;lon;timestamp;pressure;altitude;pressure_sealevel;temperature;humidity
69982;BME280;57319;56.274;43.980;2023-12-07T00:01:09;101772.94;;;-15.23;83.57
69982;BME280;57319;56.274;43.980;2023-12-07T00:03:35;101777.13;;;-15.02;83.88
69982;BME280;57319;56.274;43.980;2023-12-07T00:06:00;101783.38;;;-14.84;83.74
69982;BME280;57319;56.274;43.980;2023-12-07T00:08:26;101775.75;;;-14.93;83.42
69982;BME280;57319;56.274;43.980;2023-12-07T00:10:52;101782.59;;;-14.97;83.29
69982;BME280;57319;56.274;43.980;2023-12-07T00:13:17;101779.72;;;-14.80;83.41
69982;BME280;57319;56.274;43.980;2023-12-07T00:15:43;101781.94;;;-14.89;83.87
69982;BME280;57319;56.274;43.980;2023-12-07T00:18:09;101777.25;;;-14.80;83.93
69982;BME280;57319;56.274;43.980;2023-12-07T00:20:35;101783.16;;;-15.00;83.38
69982;BME280;57319;56.274;43.980;2023-12-07T00:23:00;101783.91;;;-14.87;83.71
69982;BME280;57319;56.274;43.980;2023-12-07T00:25:26;101783.91;;;-15.14;83.55
69982;BME280;57319;56.274;43.980;2023-12-07T00:27:52;101785.16;;;-14.83;83.64
69982;BME280;57319;56.274;43.980;2023-12-07T00:30:18;101778.78;;;-14.88;83.38
69982;BME280;57319;56.274;43.980;2023-12-07T00:32:43;101782.38;;;-14.79;83.66
69982;BME280;57319;56.274;43.980;2023-12-07T00:35:10;101786.31;;;-14.66;84.08
69982;BME280;57319;56.274;43.980;2023-12-07T00:37:36;101786.94;;;-14.82;83.52
69982;BME280;57319;56.274;43.980;2023-12-07T00:40:02;101789.94;;;-14.85;82.93
69982;BME280;57319;56.274;43.980;2023-12-07T00:42:30;101792.22;;;-15.13;83.13
69982;BME280;57319;56.274;43.980;2023-12-07T00:44:56;101799.06;;;-15.45;83.02
69982;BME280;57319;56.274;43.980;2023-12-07T00:47:21;101792.22;;;-15.41;84.17
69982;BME280;57319;56.274;43.980;2023-12-07T00:49:47;101799.16;;;-15.31;83.54
69982;BME280;57319;56.274;43.980;2023-12-07T00:52:13;101798.41;;;-15.37;83.75
69982;BME280;57319;56.274;43.980;2023-12-07T00:54:39;101794.34;;;-15.16;84.27
69982;BME280;57319;56.274;43.980;2023-12-07T00:57:06;101792.13;;;-15.00;83.44
69982;BME280;57319;56.274;43.980;2023-12-07T00:59:32;101794.38;;;-14.82;83.22
69982;BME280;57319;56.274;43.980;2023-12-07T01:02:05;101795.69;;;-14.64;83.45
69982;BME280;57319;56.274;43.980;2023-12-07T01:04:32;101792.06;;;-14.80;82.98
69982;BME280;57319;56.274;43.980;2023-12-07T01:06:58;101793.41;;;-14.62;83.39
69982;BME280;57319;56.274;43.980;2023-12-07T01:09:24;101800.59;;;-14.71;83.05
69982;BME280;57319;56.274;43.980;2023-12-07T01:11:50;101800.03;;;-15.03;82.89
69982;BME280;57319;56.274;43.980;2023-12-07T01:14:17;101795.72;;;-14.91;83.02
69982;BME280;57319;56.274;43.980;2023-12-07T01:16:43;101802.59;;;-14.96;82.47
69982;BME280;57319;56.274;43.980;2023-12-07T01:19:10;101810.94;;;-14.81;82.77
69982;BME280;57319;56.274;43.980;2023-12-07T01:21:36;101801.31;;;-14.72;82.39
69982;BME280;57319;56.274;43.980;2023-12-07T01:24:01;101805.94;;;-14.54;82.76
69982;BME280;57319;56.274;43.980;2023-12-07T01:26:27;101803.81;;;-14.65;82.45
69982;BME280;57319;56.274;43.980;2023-12-07T01:28:53;101809.00;;;-14.83;82.74
69982;BME280;57319;56.274;43.980;2023-12-07T01:31:18;101810.09;;;-14.74;82.86
69982;BME280;57319;56.274;43.980;2023-12-07T01:33:44;101804.97;;;-14.76;82.01
69982;BME280;57319;56.274;43.980;2023-12-07T01:36:11;101820.31;;;-15.06;82.25
69982;BME280;57319;56.274;43.980;2023-12-07T01:38:37;101808.56;;;-15.01;82.65
69982;BME280;57319;56.274;43.980;2023-12-07T01:41:03;101821.13;;;-14.92;82.59
69982;BME280;57319;56.274;43.980;2023-12-07T01:43:29;101824.22;;;-15.08;82.42
69982;BME280;57319;56.274;43.980;2023-12-07T01:45:57;101831.81;;;-15.06;83.23
69982;BME280;57319;56.274;43.980;2023-12-07T01:48:25;101833.63;;;-14.71;83.13
69982;BME280;57319;56.274;43.980;2023-12-07T01:50:55;101834.72;;;-14.61;83.12
69982;BME280;57319;56.274;43.980;2023-12-07T01:53:24;101835.06;;;-15.20;82.50
69982;BME280;57319;56.274;43.980;2023-12-07T01:55:52;101841.59;;;-14.93;83.28
69982;BME280;57319;56.274;43.980;2023-12-07T01:58:19;101841.69;;;-15.06;83.39
69982;BME280;57319;56.274;43.980;2023-12-07T02:00:46;101845.09;;;-14.98;83.33
69982;BME280;57319;56.274;43.980;2023-12-07T02:03:12;101834.91;;;-14.94;83.53
69982;BME280;57319;56.274;43.980;2023-12-07T02:05:43;101844.72;;;-15.02;82.99
69982;BME280;57319;56.274;43.980;2023-12-07T02:08:09;101844.53;;;-15.03;83.60
69982;BME280;57319;56.274;43.980;2023-12-07T02:10:35;101846.91;;;-15.17;84.77
69982;BME280;57319;56.274;43.980;2023-12-07T02:13:01;101840.00;;;-15.00;84.70
69982;BME280;57319;56.274;43.980;2023-12-07T02:15:29;101845.88;;;-14.85;84.63
69982;BME280;57319;56.274;43.980;2023-12-07T02:18:06;101845.16;;;-14.57;84.11
69982;BME280;57319;56.274;43.980;2023-12-07T02:23:25;101854.22;;;-15.05;83.86
69982;BME280;57319;56.274;43.980;2023-12-07T02:29:05;101851.69;;;-14.92;85.50
69982;BME280;57319;56.274;43.980;2023-12-07T02:31:31;101861.25;;;-14.88;85.20
69982;BME280;57319;56.274;43.980;2023-12-07T02:33:57;101851.53;;;-14.52;85.24
69982;BME280;57319;56.274;43.980;2023-12-07T02:36:24;101856.72;;;-14.36;85.04
69982;BME280;57319;56.274;43.980;2023-12-07T02:38:53;101865.44;;;-14.25;85.15
69982;BME280;57319;56.274;43.980;2023-12-07T02:41:22;101863.97;;;-14.37;84.68
69982;BME280;57319;56.274;43.980;2023-12-07T02:43:48;101865.63;;;-14.58;84.60
69982;BME280;57319;56.274;43.980;2023-12-07T02:46:14;101860.78;;;-14.43;84.88
69982;BME280;57319;56.274;43.980;2023-12-07T02:48:39;101865.25;;;-14.26;84.88
69982;BME280;57319;56.274;43.980;2023-12-07T02:51:05;101860.03;;;-14.08;84.53
69982;BME280;57319;56.274;43.980;2023-12-07T02:53:31;101868.19;;;-14.02;84.48
69982;BME280;57319;56.274;43.980;2023-12-07T02:55:57;101868.22;;;-14.36;83.78
69982;BME280;57319;56.274;43.980;2023-12-07T02:58:22;101862.59;;;-14.70;84.48
69982;BME280;57319;56.274;43.980;2023-12-07T03:00:48;101870.00;;;-14.35;84.68
69982;BME280;57319;56.274;43.980;2023-12-07T03:03:13;101864.88;;;-14.37;84.38
69982;BME280;57319;56.274;43.980;2023-12-07T03:05:39;101868.00;;;-14.45;83.76
69982;BME280;57319;56.274;43.980;2023-12-07T03:08:05;101870.09;;;-14.48;84.28
69982;BME280;57319;56.274;43.980;2023-12-07T03:10:30;101870.22;;;-14.54;84.03
69982;BME280;57319;56.274;43.980;2023-12-07T03:12:56;101869.41;;;-14.47;84.27
69982;BME280;57319;56.274;43.980;2023-12-07T03:15:21;101878.06;;;-14.51;84.61
69982;BME280;57319;56.274;43.980;2023-12-07T03:17:48;101875.91;;;-14.20;84.28
69982;BME280;57319;56.274;43.980;2023-12-07T03:20:15;101875.25;;;-14.05;83.94
69982;BME280;57319;56.274;43.980;2023-12-07T03:22:40;101884.88;;;-14.28;83.38
69982;BME280;57319;56.274;43.980;2023-12-07T03:25:06;101889.31;;;-14.25;83.77
69982;BME280;57319;56.274;43.980;2023-12-07T03:27:32;101880.47;;;-14.58;84.02
69982;BME280;57319;56.274;43.980;2023-12-07T03:29:58;101885.19;;;-14.74;84.58
69982;BME280;57319;56.274;43.980;2023-12-07T03:32:23;101881.41;;;-14.50;84.46
69982;BME280;57319;56.274;43.980;2023-12-07T03:34:49;101886.19;;;-14.44;84.08
69982;BME280;57319;56.274;43.980;2023-12-07T03:37:14;101892.63;;;-14.59;84.10
69982;BME280;57319;56.274;43.980;2023-12-07T03:39:40;101895.63;;;-14.69;84.27
69982;BME280;57319;56.274;43.980;2023-12-07T03:42:06;101894.78;;;-14.55;84.40
69982;BME280;57319;56.274;43.980;2023-12-07T03:44:31;101900.72;;;-14.40;84.00
69982;BME280;57319;56.274;43.980;2023-12-07T03:46:57;101903.31;;;-14.19;84.50
69982;BME280;57319;56.274;43.980;2023-12-07T03:49:22;101907.47;;;-14.32;83.85
69982;BME280;57319;56.274;43.980;2023-12-07T03:51:48;101908.06;;;-14.55;84.60
69982;BME280;57319;56.274;43.980;2023-12-07T03:54:14;101908.59;;;-14.23;84.59
69982;BME280;57319;56.274;43.980;2023-12-07T03:56:39;101907.94;;;-14.07;84.30
69982;BME280;57319;56.274;43.980;2023-12-07T03:59:06;101909.13;;;-14.18;84.06
69982;BME280;57319;56.274;43.980;2023-12-07T04:01:32;101900.00;;;-14.39;83.96
69982;BME280;57319;56.274;43.980;2023-12-07T04:03:57;101908.81;;;-14.07;84.27
69982;BME280;57319;56.274;43.980;2023-12-07T04:06:24;101912.38;;;-14.05;83.66
69982;BME280;57319;56.274;43.980;2023-12-07T04:08:50;101913.91;;;-14.12;83.90
69982;BME280;57319;56.274;43.980;2023-12-07T04:11:16;101905.38;;;-14.56;84.06
69982;BME280;57319;56.274;43.980;2023-12-07T04:13:42;101911.78;;;-14.17;84.08
69982;BME280;57319;56.274;43.980;2023-12-07T04:16:09;101920.13;;;-14.09;84.01
69982;BME280;57319;56.274;43.980;2023-12-07T04:18:35;101915.31;;;-14.22;84.10
69982;BME280;57319;56.274;43.980;2023-12-07T04:21:01;101915.72;;;-14.04;84.52
69982;BME280;57319;56.274;43.980;2023-12-07T04:23:26;101909.78;;;-14.26;83.65
69982;BME280;57319;56.274;43.980;2023-12-07T04:25:52;101926.66;;;-14.44;83.87
69982;BME280;57319;56.274;43.980;2023-12-07T04:28:18;101928.59;;;-14.14;83.60
69982;BME280;57319;56.274;43.980;2023-12-07T04:30:43;101928.84;;;-14.67;83.07
69982;BME280;57319;56.274;43.980;2023-12-07T04:33:09;101931.66;;;-14.71;84.01
69982;BME280;57319;56.274;43.980;2023-12-07T04:35:35;101937.94;;;-14.80;85.00
69982;BME280;57319;56.274;43.980;2023-12-07T04:38:00;101934.34;;;-14.55;84.45
69982;BME280;57319;56.274;43.980;2023-12-07T04:40:26;101941.13;;;-14.20;84.09
69982;BME280;57319;56.274;43.980;2023-12-07T04:42:52;101935.22;;;-14.27;83.72
69982;BME280;57319;56.274;43.980;2023-12-07T04:45:18;101929.28;;;-14.15;83.67
69982;BME280;57319;56.274;43.980;2023-12-07T04:47:43;101936.84;;;-14.21;83.83
69982;BME280;57319;56.274;43.980;2023-12-07T04:50:09;101932.25;;;-14.25;83.75
69982;BME280;57319;56.274;43.980;2023-12-07T04:52:38;101936.38;;;-14.45;84.40
69982;BME280;57319;56.274;43.980;2023-12-07T04:55:04;101946.50;;;-14.09;83.69
69982;BME280;57319;56.274;43.980;2023-12-07T04:57:33;101941.13;;;-14.47;82.49
69982;BME280;57319;56.274;43.980;2023-12-07T04:59:59;101949.34;;;-14.34;83.35
69982;BME280;57319;56.274;43.980;2023-12-07T05:02:24;101953.78;;;-14.58;84.61
69982;BME280;57319;56.274;43.980;2023-12-07T05:04:51;101963.66;;;-14.65;84.05
69982;BME280;57319;56.274;43.980;2023-12-07T05:07:16;101963.47;;;-14.67;84.81
69982;BME280;57319;56.274;43.980;2023-12-07T05:09:42;101962.44;;;-14.27;84.42
69982;BME280;57319;56.274;43.980;2023-12-07T05:12:08;101960.59;;;-14.16;83.86
69982;BME280;57319;56.274;43.980;2023-12-07T05:14:34;101963.16;;;-14.01;83.93
69982;BME280;57319;56.274;43.980;2023-12-07T05:17:03;101967.66;;;-14.19;83.19
69982;BME280;57319;56.274;43.980;2023-12-07T05:19:29;101963.41;;;-14.12;83.75
69982;BME280;57319;56.274;43.980;2023-12-07T05:21:54;101967.38;;;-14.00;83.25
69982;BME280;57319;56.274;43.980;2023-12-07T05:24:20;101966.88;;;-13.97;83.11
69982;BME280;57319;56.274;43.980;2023-12-07T05:26:46;101974.72;;;-13.87;83.44
69982;BME280;57319;56.274;43.980;2023-12-07T05:29:12;101976.28;;;-13.88;83.41
69982;BME280;57319;56.274;43.980;2023-12-07T05:31:39;101981.97;;;-13.89;83.47
69982;BME280;57319;56.274;43.980;2023-12-07T05:34:05;101979.91;;;-14.06;83.16
69982;BME280;57319;56.274;43.980;2023-12-07T05:36:31;101987.94;;;-13.94;83.55
69982;BME280;57319;56.274;43.980;2023-12-07T05:38:57;101985.81;;;-13.91;83.49
69982;BME280;57319;56.274;43.980;2023-12-07T05:41:23;101989.41;;;-13.82;83.12
69982;BME280;57319;56.274;43.980;2023-12-07T05:43:49;101990.53;;;-14.34;82.34
69982;BME280;57319;56.274;43.980;2023-12-07T05:46:15;101987.06;;;-14.22;82.89
69982;BME280;57319;56.274;43.980;2023-12-07T05:48:43;101991.56;;;-14.66;83.27
69982;BME280;57319;56.274;43.980;2023-12-07T05:51:16;101996.88;;;-14.56;83.90
69982;BME280;57319;56.274;43.980;2023-12-07T05:53:42;102001.53;;;-14.25;82.86
69982;BME280;57319;56.274;43.980;2023-12-07T05:56:08;102009.47;;;-14.00;83.02
69982;BME280;57319;56.274;43.980;2023-12-07T05:58:34;102007.59;;;-13.88;83.32
69982;BME280;57319;56.274;43.980;2023-12-07T06:01:01;102006.59;;;-13.76;82.99
69982;BME280;57319;56.274;43.980;2023-12-07T06:03:28;102005.91;;;-13.75;83.15
69982;BME280;57319;56.274;43.980;2023-12-07T06:05:54;102005.16;;;-13.81;82.57
69982;BME280;57319;56.274;43.980;2023-12-07T06:08:20;102012.09;;;-13.71;82.90
69982;BME280;57319;56.274;43.980;2023-12-07T06:10:45;102014.00;;;-14.10;81.43
69982;BME280;57319;56.274;43.980;2023-12-07T06:13:12;102014.53;;;-14.60;81.88
69982;BME280;57319;56.274;43.980;2023-12-07T06:15:39;102019.19;;;-14.29;82.54
69982;BME280;57319;56.274;43.980;2023-12-07T06:18:05;102023.91;;;-14.10;82.56
69982;BME280;57319;56.274;43.980;2023-12-07T06:20:31;102012.09;;;-13.71;82.29
69982;BME280;57319;56.274;43.980;2023-12-07T06:22:57;102022.38;;;-13.68;81.88
69982;BME280;57319;56.274;43.980;2023-12-07T06:25:24;102021.44;;;-13.76;82.47
69982;BME280;57319;56.274;43.980;2023-12-07T06:27:49;102029.38;;;-13.86;82.53
69982;BME280;57319;56.274;43.980;2023-12-07T06:30:16;102024.28;;;-13.73;82.18
69982;BME280;57319;56.274;43.980;2023-12-07T06:32:42;102030.25;;;-13.85;82.07
69982;BME280;57319;56.274;43.980;2023-12-07T06:35:08;102030.41;;;-13.49;82.14
69982;BME280;57319;56.274;43.980;2023-12-07T06:37:33;102031.28;;;-13.56;81.72
69982;BME280;57319;56.274;43.980;2023-12-07T06:39:59;102028.50;;;-13.44;81.56
69982;BME280;57319;56.274;43.980;2023-12-07T06:42:26;102030.28;;;-13.43;81.53
69982;BME280;57319;56.274;43.980;2023-12-07T06:44:52;102029.47;;;-13.64;80.82
69982;BME280;57319;56.274;43.980;2023-12-07T06:47:18;102035.19;;;-13.51;81.09
69982;BME280;57319;56.274;43.980;2023-12-07T06:49:44;102029.56;;;-13.28;81.42
69982;BME280;57319;56.274;43.980;2023-12-07T06:52:12;102034.63;;;-13.55;80.61
69982;BME280;57319;56.274;43.980;2023-12-07T06:54:38;102023.31;;;-13.88;80.59
69982;BME280;57319;56.274;43.980;2023-12-07T06:57:06;102036.63;;;-13.45;81.15
69982;BME280;57319;56.274;43.980;2023-12-07T06:59:33;102030.28;;;-13.36;80.91
69982;BME280;57319;56.274;43.980;2023-12-07T07:01:59;102033.69;;;-13.21;80.99
69982;BME280;57319;56.274;43.980;2023-12-07T07:04:24;102035.13;;;-13.09;80.94
69982;BME280;57319;56.274;43.980;2023-12-07T07:06:50;102038.22;;;-13.46;79.32
69982;BME280;57319;56.274;43.980;2023-12-07T07:09:17;102040.25;;;-13.07;80.42
69982;BME280;57319;56.274;43.980;2023-12-07T07:11:47;102050.38;;;-12.99;80.43
69982;BME280;57319;56.274;43.980;2023-12-07T07:14:13;102051.63;;;-12.95;80.57
69982;BME280;57319;56.274;43.980;2023-12-07T07:16:39;102045.22;;;-13.00;80.56
69982;BME280;57319;56.274;43.980;2023-12-07T07:19:05;102044.00;;;-12.97;80.81
69982;BME280;57319;56.274;43.980;2023-12-07T07:21:31;102058.16;;;-12.96;80.64
69982;BME280;57319;56.274;43.980;2023-12-07T07:23:57;102052.31;;;-12.89;80.81
69982;BME280;57319;56.274;43.980;2023-12-07T07:26:23;102052.69;;;-12.93;80.38
69982;BME280;57319;56.274;43.980;2023-12-07T07:28:52;102055.34;;;-12.91;80.96
69982;BME280;57319;56.274;43.980;2023-12-07T07:31:18;102053.00;;;-13.04;80.79
69982;BME280;57319;56.274;43.980;2023-12-07T07:33:44;102051.22;;;-13.05;79.88
69982;BME280;57319;56.274;43.980;2023-12-07T07:36:13;102051.81;;;-12.93;80.17
69982;BME280;57319;56.274;43.980;2023-12-07T07:38:40;102050.41;;;-12.84;80.14
69982;BME280;57319;56.274;43.980;2023-12-07T07:41:05;102053.75;;;-12.84;80.71
69982;BME280;57319;56.274;43.980;2023-12-07T07:43:31;102056.97;;;-12.77;81.11
69982;BME280;57319;56.274;43.980;2023-12-07T07:45:57;102052.38;;;-12.82;79.77
69982;BME280;57319;56.274;43.980;2023-12-07T07:48:22;102052.16;;;-12.98;79.76
69982;BME280;57319;56.274;43.980;2023-12-07T07:50:48;102057.50;;;-12.80;80.03
69982;BME280;57319;56.274;43.980;2023-12-07T07:53:14;102058.03;;;-12.75;79.96
69982;BME280;57319;56.274;43.980;2023-12-07T07:55:39;102049.47;;;-13.06;79.64
69982;BME280;57319;56.274;43.980;2023-12-07T07:58:05;102056.25;;;-12.84;79.40
69982;BME280;57319;56.274;43.980;2023-12-07T08:00:31;102059.13;;;-12.66;79.46
69982;BME280;57319;56.274;43.980;2023-12-07T08:02:58;102056.28;;;-12.69;79.04
69982;BME280;57319;56.274;43.980;2023-12-07T08:05:24;102069.16;;;-12.93;78.28
69982;BME280;57319;56.274;43.980;2023-12-07T08:07:50;102066.91;;;-12.70;79.26
69982;BME280;57319;56.274;43.980;2023-12-07T08:10:16;102063.25;;;-13.16;77.73
69982;BME280;57319;56.274;43.980;2023-12-07T08:12:43;102063.44;;;-13.63;79.52
69982;BME280;57319;56.274;43.980;2023-12-07T08:15:12;102067.69;;;-13.13;80.01
69982;BME280;57319;56.274;43.980;2023-12-07T08:17:39;102064.22;;;-13.42;78.62
69982;BME280;57319;56.274;43.980;2023-12-07T08:20:10;102068.72;;;-13.25;78.76
69982;BME280;57319;56.274;43.980;2023-12-07T08:22:37;102072.81;;;-13.60;76.96
69982;BME280;57319;56.274;43.980;2023-12-07T08:25:03;102071.56;;;-13.22;79.09
69982;BME280;57319;56.274;43.980;2023-12-07T08:27:33;102073.63;;;-12.76;78.74
69982;BME280;57319;56.274;43.980;2023-12-07T08:30:00;102077.19;;;-12.74;77.39
69982;BME280;57319;56.274;43.980;2023-12-07T08:32:26;102078.63;;;-12.62;77.68
69982;BME280;57319;56.274;43.980;2023-12-07T08:34:52;102067.44;;;-12.58;77.37
69982;BME280;57319;56.274;43.980;2023-12-07T08:37:18;102078.97;;;-12.23;77.85
69982;BME280;57319;56.274;43.980;2023-12-07T08:39:44;102073.13;;;-12.16;77.27
69982;BME280;57319;56.274;43.980;2023-12-07T08:42:10;102071.88;;;-12.13;76.63
69982;BME280;57319;56.274;43.980;2023-12-07T08:44:37;102077.91;;;-12.39;74.19
69982;BME280;57319;56.274;43.980;2023-12-07T08:47:03;102071.88;;;-12.05;75.69
69982;BME280;57319;56.274;43.980;2023-12-07T08:49:28;102073.97;;;-12.81;74.24
69982;BME280;57319;56.274;43.980;2023-12-07T08:51:54;102071.16;;;-12.04;75.77
69982;BME280;57319;56.274;43.980;2023-12-07T08:54:21;102065.97;;;-11.91;75.93
69982;BME280;57319;56.274;43.980;2023-12-07T08:56:47;102073.81;;;-12.68;74.33
69982;BME280;57319;56.274;43.980;2023-12-07T08:59:13;102071.00;;;-12.42;75.12
69982;BME280;57319;56.274;43.980;2023-12-07T09:01:38;102080.22;;;-12.55;74.79
69982;BME280;57319;56.274;43.980;2023-12-07T09:04:04;102072.06;;;-12.25;76.06
69982;BME280;57319;56.274;43.980;2023-12-07T09:06:31;102072.78;;;-12.26;74.99
69982;BME280;57319;56.274;43.980;2023-12-07T09:08:56;102075.78;;;-12.51;75.56
69982;BME280;57319;56.274;43.980;2023-12-07T09:11:23;102075.25;;;-12.12;75.65
69982;BME280;57319;56.274;43.980;2023-12-07T09:13:49;102070.66;;;-12.23;75.52
69982;BME280;57319;56.274;43.980;2023-12-07T09:16:15;102076.13;;;-12.48;74.79
69982;BME280;57319;56.274;43.980;2023-12-07T09:18:41;102070.63;;;-12.38;74.96
69982;BME280;57319;56.274;43.980;2023-12-07T09:21:07;102070.66;;;-12.23;75.93
69982;BME280;57319;56.274;43.980;2023-12-07T09:23:34;102066.03;;;-12.20;75.83
69982;BME280;57319;56.274;43.980;2023-12-07T09:26:00;102068.69;;;-12.26;76.23
69982;BME280;57319;56.274;43.980;2023-12-07T09:28:26;102068.00;;;-12.25;76.47
69982;BME280;57319;56.274;43.980;2023-12-07T09:30:52;102069.41;;;-12.27;75.59
69982;BME280;57319;56.274;43.980;2023-12-07T09:33:18;102069.03;;;-12.59;76.41
69982;BME280;57319;56.274;43.980;2023-12-07T09:35:44;102068.72;;;-13.25;75.54
69982;BME280;57319;56.274;43.980;2023-12-07T09:38:10;102064.06;;;-12.66;77.44
69982;BME280;57319;56.274;43.980;2023-12-07T09:40:35;102063.38;;;-12.65;76.48
69982;BME280;57319;56.274;43.980;2023-12-07T09:43:01;102060.84;;;-12.87;75.16
69982;BME280;57319;56.274;43.980;2023-12-07T09:45:27;102065.84;;;-12.51;75.95
69982;BME280;57319;56.274;43.980;2023-12-07T09:47:54;102063.63;;;-13.05;75.65
69982;BME280;57319;56.274;43.980;2023-12-07T09:50:26;102064.78;;;-12.67;76.17
69982;BME280;57319;56.274;43.980;2023-12-07T09:52:57;102060.38;;;-12.26;76.80
69982;BME280;57319;56.274;43.980;2023-12-07T09:55:23;102059.47;;;-12.27;76.01
69982;BME280;57319;56.274;43.980;2023-12-07T09:57:50;102068.28;;;-12.87;76.16
69982;BME280;57319;56.274;43.980;2023-12-07T10:00:16;102067.28;;;-12.53;77.28
69982;BME280;57319;56.274;43.980;2023-12-07T10:02:45;102076.66;;;-12.57;76.04
69982;BME280;57319;56.274;43.980;2023-12-07T10:05:13;102079.31;;;-12.63;76.26
69982;BME280;57319;56.274;43.980;2023-12-07T10:07:41;102068.66;;;-13.33;77.09
69982;BME280;57319;56.274;43.980;2023-12-07T10:10:08;102072.63;;;-13.69;78.82
69982;BME280;57319;56.274;43.980;2023-12-07T10:12:47;102070.88;;;-13.14;79.01
69982;BME280;57319;56.274;43.980;2023-12-07T10:15:17;102072.03;;;-12.62;78.29
69982;BME280;57319;56.274;43.980;2023-12-07T10:17:47;102069.31;;;-12.99;77.13
69982;BME280;57319;56.274;43.980;2023-12-07T10:20:18;102072.56;;;-12.64;77.16
69982;BME280;57319;56.274;43.980;2023-12-07T10:22:45;102075.25;;;-13.40;77.63
69982;BME280;57319;56.274;43.980;2023-12-07T10:25:11;102069.84;;;-13.02;78.17
69982;BME280;57319;56.274;43.980;2023-12-07T10:27:39;102066.91;;;-12.70;77.58
69982;BME280;57319;56.274;43.980;2023-12-07T10:30:07;102067.59;;;-12.78;77.00
69982;BME280;57319;56.274;43.980;2023-12-07T10:32:39;102063.19;;;-13.30;77.57
69982;BME280;57319;56.274;43.980;2023-12-07T10:35:07;102061.56;;;-12.88;78.59
69982;BME280;57319;56.274;43.980;2023-12-07T10:37:33;102071.22;;;-13.11;78.32
69982;BME280;57319;56.274;43.980;2023-12-07T10:39:59;102069.75;;;-12.67;78.82
69982;BME280;57319;56.274;43.980;2023-12-07T10:42:26;102070.25;;;-12.70;78.18
69982;BME280;57319;56.274;43.980;2023-12-07T10:44:58;102065.84;;;-12.58;78.15
69982;BME280;57319;56.274;43.980;2023-12-07T10:47:35;102063.84;;;-12.82;77.28
69982;BME280;57319;56.274;43.980;2023-12-07T10:50:05;102073.78;;;-12.89;77.93
69982;BME280;57319;56.274;43.980;2023-12-07T10:52:39;102074.63;;;-13.52;77.90
69982;BME280;57319;56.274;43.980;2023-12-07T10:55:07;102070.63;;;-13.37;79.10
69982;BME280;57319;56.274;43.980;2023-12-07T10:57:34;102074.00;;;-13.37;79.09
69982;BME280;57319;56.274;43.980;2023-12-07T11:00:01;102069.78;;;-13.72;78.40
69982;BME280;57319;56.274;43.980;2023-12-07T11:02:32;102080.41;;;-13.66;79.74
69982;BME280;57319;56.274;43.980;2023-12-07T11:04:58;102071.28;;;-13.87;80.17
69982;BME280;57319;56.274;43.980;2023-12-07T11:07:28;102067.44;;;-13.43;79.57
69982;BME280;57319;56.274;43.980;2023-12-07T11:10:15;102070.19;;;-12.99;79.30
69982;BME280;57319;56.274;43.980;2023-12-07T11:13:00;102075.69;;;-13.01;79.16
69982;BME280;57319;56.274;43.980;2023-12-07T11:15:32;102084.53;;;-13.10;78.51
69982;BME280;57319;56.274;43.980;2023-12-07T11:18:01;102090.28;;;-13.39;79.28
69982;BME280;57319;56.274;43.980;2023-12-07T11:20:42;102084.09;;;-13.28;79.33
69982;BME280;57319;56.274;43.980;2023-12-07T11:23:10;102087.72;;;-13.11;79.68
69982;BME280;57319;56.274;43.980;2023-12-07T11:25:36;102098.97;;;-13.28;78.98
69982;BME280;57319;56.274;43.980;2023-12-07T11:28:05;102101.50;;;-13.14;79.73
69982;BME280;57319;56.274;43.980;2023-12-07T11:30:35;102093.25;;;-13.34;79.00
69982;BME280;57319;56.274;43.980;2023-12-07T11:33:05;102092.91;;;-13.79;79.71
69982;BME280;57319;56.274;43.980;2023-12-07T11:35:32;102092.97;;;-13.65;79.17
69982;BME280;57319;56.274;43.980;2023-12-07T11:38:05;102093.81;;;-13.71;79.27
69982;BME280;57319;56.274;43.980;2023-12-07T11:40:34;102091.16;;;-13.38;79.72
69982;BME280;57319;56.274;43.980;2023-12-07T11:43:00;102092.44;;;-13.69;79.15
69982;BME280;57319;56.274;43.980;2023-12-07T11:45:40;102097.34;;;-13.42;79.11
69982;BME280;57319;56.274;43.980;2023-12-07T11:48:10;102098.47;;;-13.25;79.77
69982;BME280;57319;56.274;43.980;2023-12-07T11:50:36;102095.97;;;-13.25;79.99
69982;BME280;57319;56.274;43.980;2023-12-07T11:53:31;102096.94;;;-13.52;79.32
69982;BME280;57319;56.274;43.980;2023-12-07T11:56:00;102096.84;;;-13.32;79.87
69982;BME280;57319;56.274;43.980;2023-12-07T11:58:28;102099.66;;;-13.29;80.23
69982;BME280;57319;56.274;43.980;2023-12-07T12:00:55;102108.16;;;-13.41;79.69
69982;BME280;57319;56.274;43.980;2023-12-07T12:03:23;102107.50;;;-13.88;80.59
69982;BME280;57319;56.274;43.980;2023-12-07T12:05:49;102105.47;;;-13.77;80.30
69982;BME280;57319;56.274;43.980;2023-12-07T12:08:16;102111.91;;;-13.92;80.63
69982;BME280;57319;56.274;43.980;2023-12-07T12:10:43;102114.91;;;-13.68;81.03
69982;BME280;57319;56.274;43.980;2023-12-07T12:13:09;102115.19;;;-13.79;80.58
69982;BME280;57319;56.274;43.980;2023-12-07T12:15:35;102118.22;;;-13.74;80.77
69982;BME280;57319;56.274;43.980;2023-12-07T12:18:01;102120.00;;;-13.73;81.15
69982;BME280;57319;56.274;43.980;2023-12-07T12:20:28;102116.41;;;-14.30;81.00
69982;BME280;57319;56.274;43.980;2023-12-07T12:22:54;102120.63;;;-14.09;81.53
69982;BME280;57319;56.274;43.980;2023-12-07T12:25:25;102128.41;;;-13.86;81.90
69982;BME280;57319;56.274;43.980;2023-12-07T12:27:54;102125.69;;;-13.94;81.68
69982;BME280;57319;56.274;43.980;2023-12-07T12:30:21;102121.84;;;-13.85;81.90
69982;BME280;57319;56.274;43.980;2023-12-07T12:32:50;102121.63;;;-13.94;81.21
69982;BME280;57319;56.274;43.980;2023-12-07T12:35:17;102113.44;;;-14.00;82.11